sensor_id;sensor_type;location;lat;lon;timestamp;P1;durP1;ratioP1;P2;durP2;ratioP2
15285;SDS011;7744;52.172;10.668;2023-06-14T00:01:18;4.13;;;1.98;;
15285;SDS011;7744;52.172;10.668;2023-06-14T00:03:45;2.47;;;2.22;;
15285;SDS011;7744;52.172;10.668;2023-06-14T00:06:12;2.72;;;1.55;;
15285;SDS011;7744;52.172;10.668;2023-06-14T00:08:38;1.88;;;1.60;;
15285;SDS011;7744;52.172;10.668;2023-06-14T00:11:05;1.88;;;1.60;;
15285;SDS011;7744;52.172;10.668;2023-06-14T00:13:31;1.48;;;1.38;;
15285;SDS011;7744;52.172;10.668;2023-06-14T00:15:56;2.50;;;1.70;;
15285;SDS011;7744;52.172;10.668;2023-06-14T00:18:22;1.60;;;1.50;;
15285;SDS011;7744;52.172;10.668;2023-06-14T00:20:54;1.75;;;1.63;;
15285;SDS011;7744;52.172;10.668;2023-06-14T00:23:20;2.00;;;1.48;;
15285;SDS011;7744;52.172;10.668;2023-06-14T00:25:46;1.80;;;1.70;;
15285;SDS011;7744;52.172;10.668;2023-06-14T00:28:12;1.92;;;1.75;;
15285;SDS011;7744;52.172;10.668;2023-06-14T00:30:38;4.13;;;1.65;;
15285;SDS011;7744;52.172;10.668;2023-06-14T00:33:04;3.75;;;1.63;;
15285;SDS011;7744;52.172;10.668;2023-06-14T00:35:29;4.30;;;1.80;;
15285;SDS011;7744;52.172;10.668;2023-06-14T00:37:55;4.07;;;1.83;;
15285;SDS011;7744;52.172;10.668;2023-06-14T00:40:21;1.92;;;1.73;;
15285;SDS011;7744;52.172;10.668;2023-06-14T00:42:47;2.17;;;1.70;;
15285;SDS011;7744;52.172;10.668;2023-06-14T00:45:12;2.10;;;1.80;;
15285;SDS011;7744;52.172;10.668;2023-06-14T00:47:38;3.70;;;1.60;;
15285;SDS011;7744;52.172;10.668;2023-06-14T00:50:07;1.98;;;1.70;;
15285;SDS011;7744;52.172;10.668;2023-06-14T00:52:34;2.45;;;1.60;;
15285;SDS011;7744;52.172;10.668;2023-06-14T00:55:01;1.60;;;1.50;;
15285;SDS011;7744;52.172;10.668;2023-06-14T00:57:27;2.72;;;1.77;;
15285;SDS011;7744;52.172;10.668;2023-06-14T00:59:54;1.65;;;1.45;;
15285;SDS011;7744;52.172;10.668;2023-06-14T01:02:20;1.70;;;1.40;;
15285;SDS011;7744;52.172;10.668;2023-06-14T01:04:46;2.42;;;1.35;;
15285;SDS011;7744;52.172;10.668;2023-06-14T01:07:25;2.30;;;1.70;;
15285;SDS011;7744;52.172;10.668;2023-06-14T01:10:20;2.67;;;1.52;;
15285;SDS011;7744;52.172;10.668;2023-06-14T01:15:46;1.60;;;1.50;;
15285;SDS011;7744;52.172;10.668;2023-06-14T01:18:12;3.33;;;1.85;;
15285;SDS011;7744;52.172;10.668;2023-06-14T01:20:45;1.88;;;1.58;;
15285;SDS011;7744;52.172;10.668;2023-06-14T01:23:17;2.03;;;1.50;;
15285;SDS011;7744;52.172;10.668;2023-06-14T01:25:44;2.33;;;1.60;;
15285;SDS011;7744;52.172;10.668;2023-06-14T01:28:10;2.92;;;1.80;;
15285;SDS011;7744;52.172;10.668;2023-06-14T01:30:38;4.07;;;1.55;;
15285;SDS011;7744;52.172;10.668;2023-06-14T01:33:07;1.98;;;1.63;;
15285;SDS011;7744;52.172;10.668;2023-06-14T01:35:33;1.60;;;1.50;;
15285;SDS011;7744;52.172;10.668;2023-06-14T01:37:59;1.48;;;1.38;;
15285;SDS011;7744;52.172;10.668;2023-06-14T01:40:25;1.85;;;1.73;;
15285;SDS011;7744;52.172;10.668;2023-06-14T01:42:52;3.92;;;1.75;;
15285;SDS011;7744;52.172;10.668;2023-06-14T01:45:18;2.00;;;1.52;;
15285;SDS011;7744;52.172;10.668;2023-06-14T01:47:44;1.40;;;1.30;;
15285;SDS011;7744;52.172;10.668;2023-06-14T01:50:11;2.85;;;1.70;;
15285;SDS011;7744;52.172;10.668;2023-06-14T01:52:37;2.05;;;1.83;;
15285;SDS011;7744;52.172;10.668;2023-06-14T01:55:04;3.22;;;1.60;;
15285;SDS011;7744;52.172;10.668;2023-06-14T01:57:30;2.05;;;1.60;;
15285;SDS011;7744;52.172;10.668;2023-06-14T01:59:56;1.92;;;1.70;;
15285;SDS011;7744;52.172;10.668;2023-06-14T02:02:21;2.20;;;1.60;;
15285;SDS011;7744;52.172;10.668;2023-06-14T02:04:47;1.95;;;1.85;;
15285;SDS011;7744;52.172;10.668;2023-06-14T02:07:13;2.08;;;1.80;;
15285;SDS011;7744;52.172;10.668;2023-06-14T02:09:40;2.75;;;1.52;;
15285;SDS011;7744;52.172;10.668;2023-06-14T02:12:06;1.80;;;1.70;;
15285;SDS011;7744;52.172;10.668;2023-06-14T02:14:32;7.25;;;2.28;;
15285;SDS011;7744;52.172;10.668;2023-06-14T02:16:58;3.25;;;1.70;;
15285;SDS011;7744;52.172;10.668;2023-06-14T02:19:26;1.58;;;1.48;;
15285;SDS011;7744;52.172;10.668;2023-06-14T02:21:51;1.77;;;1.35;;
15285;SDS011;7744;52.172;10.668;2023-06-14T02:24:17;3.25;;;1.80;;
15285;SDS011;7744;52.172;10.668;2023-06-14T02:26:43;1.90;;;1.80;;
15285;SDS011;7744;52.172;10.668;2023-06-14T02:29:08;2.00;;;1.50;;
15285;SDS011;7744;52.172;10.668;2023-06-14T02:31:37;4.03;;;1.80;;
15285;SDS011;7744;52.172;10.668;2023-06-14T02:34:03;4.05;;;1.70;;
15285;SDS011;7744;52.172;10.668;2023-06-14T02:36:29;2.42;;;1.80;;
15285;SDS011;7744;52.172;10.668;2023-06-14T02:38:55;2.10;;;1.60;;
15285;SDS011;7744;52.172;10.668;2023-06-14T02:41:25;2.10;;;1.90;;
15285;SDS011;7744;52.172;10.668;2023-06-14T02:43:51;2.03;;;1.73;;
15285;SDS011;7744;52.172;10.668;2023-06-14T02:46:17;2.85;;;1.52;;
15285;SDS011;7744;52.172;10.668;2023-06-14T02:48:43;2.00;;;1.80;;
15285;SDS011;7744;52.172;10.668;2023-06-14T02:51:08;3.10;;;1.50;;
15285;SDS011;7744;52.172;10.668;2023-06-14T02:53:34;2.88;;;1.77;;
15285;SDS011;7744;52.172;10.668;2023-06-14T02:56:01;2.20;;;2.00;;
15285;SDS011;7744;52.172;10.668;2023-06-14T02:58:28;1.88;;;1.77;;
15285;SDS011;7744;52.172;10.668;2023-06-14T03:00:54;1.40;;;1.30;;
15285;SDS011;7744;52.172;10.668;2023-06-14T03:03:20;2.03;;;1.73;;
15285;SDS011;7744;52.172;10.668;2023-06-14T03:05:46;1.95;;;1.83;;
15285;SDS011;7744;52.172;10.668;2023-06-14T03:08:14;2.60;;;1.85;;
15285;SDS011;7744;52.172;10.668;2023-06-14T03:10:47;1.70;;;1.60;;
15285;SDS011;7744;52.172;10.668;2023-06-14T03:13:14;5.93;;;1.75;;
15285;SDS011;7744;52.172;10.668;2023-06-14T03:15:46;2.65;;;1.77;;
15285;SDS011;7744;52.172;10.668;2023-06-14T03:18:15;2.15;;;1.60;;
15285;SDS011;7744;52.172;10.668;2023-06-14T03:20:44;2.33;;;1.40;;
15285;SDS011;7744;52.172;10.668;2023-06-14T03:23:10;2.75;;;1.83;;
15285;SDS011;7744;52.172;10.668;2023-06-14T03:25:36;3.03;;;1.60;;
15285;SDS011;7744;52.172;10.668;2023-06-14T03:28:03;2.72;;;1.67;;
15285;SDS011;7744;52.172;10.668;2023-06-14T03:30:30;1.60;;;1.50;;
15285;SDS011;7744;52.172;10.668;2023-06-14T03:32:55;1.90;;;1.70;;
15285;SDS011;7744;52.172;10.668;2023-06-14T03:35:22;1.80;;;1.70;;
15285;SDS011;7744;52.172;10.668;2023-06-14T03:37:48;1.98;;;1.83;;
15285;SDS011;7744;52.172;10.668;2023-06-14T03:40:15;4.30;;;1.80;;
15285;SDS011;7744;52.172;10.668;2023-06-14T03:42:41;1.90;;;1.73;;
15285;SDS011;7744;52.172;10.668;2023-06-14T03:45:07;2.15;;;1.80;;
15285;SDS011;7744;52.172;10.668;2023-06-14T03:47:33;2.20;;;2.00;;
15285;SDS011;7744;52.172;10.668;2023-06-14T03:49:59;2.03;;;1.75;;
15285;SDS011;7744;52.172;10.668;2023-06-14T03:52:26;1.95;;;1.75;;
15285;SDS011;7744;52.172;10.668;2023-06-14T03:54:52;2.60;;;1.95;;
15285;SDS011;7744;52.172;10.668;2023-06-14T03:57:18;3.00;;;1.90;;
15285;SDS011;7744;52.172;10.668;2023-06-14T03:59:45;2.78;;;1.83;;
15285;SDS011;7744;52.172;10.668;2023-06-14T04:02:10;1.77;;;1.50;;
15285;SDS011;7744;52.172;10.668;2023-06-14T04:04:36;2.22;;;1.80;;
15285;SDS011;7744;52.172;10.668;2023-06-14T04:07:02;1.70;;;1.60;;
15285;SDS011;7744;52.172;10.668;2023-06-14T04:09:31;2.13;;;1.77;;
15285;SDS011;7744;52.172;10.668;2023-06-14T04:11:57;4.20;;;2.05;;
15285;SDS011;7744;52.172;10.668;2023-06-14T04:14:23;1.73;;;1.63;;
15285;SDS011;7744;52.172;10.668;2023-06-14T04:16:49;2.10;;;1.80;;
15285;SDS011;7744;52.172;10.668;2023-06-14T04:19:15;3.10;;;1.60;;
15285;SDS011;7744;52.172;10.668;2023-06-14T04:21:41;1.80;;;1.52;;
15285;SDS011;7744;52.172;10.668;2023-06-14T04:24:07;2.65;;;1.65;;
15285;SDS011;7744;52.172;10.668;2023-06-14T04:26:39;3.45;;;2.25;;
15285;SDS011;7744;52.172;10.668;2023-06-14T04:29:05;3.78;;;1.88;;
15285;SDS011;7744;52.172;10.668;2023-06-14T04:31:31;2.88;;;2.00;;
15285;SDS011;7744;52.172;10.668;2023-06-14T04:34:02;2.95;;;2.15;;
15285;SDS011;7744;52.172;10.668;2023-06-14T04:36:31;2.25;;;2.05;;
15285;SDS011;7744;52.172;10.668;2023-06-14T04:39:02;1.98;;;1.80;;
15285;SDS011;7744;52.172;10.668;2023-06-14T04:41:31;2.63;;;2.20;;
15285;SDS011;7744;52.172;10.668;2023-06-14T04:44:00;2.63;;;1.70;;
15285;SDS011;7744;52.172;10.668;2023-06-14T04:46:26;1.90;;;1.80;;
15285;SDS011;7744;52.172;10.668;2023-06-14T04:48:57;2.60;;;1.98;;
15285;SDS011;7744;52.172;10.668;2023-06-14T04:51:23;1.88;;;1.77;;
15285;SDS011;7744;52.172;10.668;2023-06-14T04:53:57;3.65;;;2.17;;
15285;SDS011;7744;52.172;10.668;2023-06-14T04:56:23;2.20;;;1.77;;
15285;SDS011;7744;52.172;10.668;2023-06-14T04:58:50;2.10;;;1.90;;
15285;SDS011;7744;52.172;10.668;2023-06-14T05:01:16;2.28;;;1.95;;
15285;SDS011;7744;52.172;10.668;2023-06-14T05:03:42;2.72;;;1.70;;
15285;SDS011;7744;52.172;10.668;2023-06-14T05:06:09;2.78;;;2.00;;
15285;SDS011;7744;52.172;10.668;2023-06-14T05:08:36;3.72;;;2.00;;
15285;SDS011;7744;52.172;10.668;2023-06-14T05:11:02;2.35;;;2.15;;
15285;SDS011;7744;52.172;10.668;2023-06-14T05:13:28;2.92;;;2.28;;
15285;SDS011;7744;52.172;10.668;2023-06-14T05:15:53;2.92;;;1.77;;
15285;SDS011;7744;52.172;10.668;2023-06-14T05:18:19;3.75;;;2.08;;
15285;SDS011;7744;52.172;10.668;2023-06-14T05:20:45;2.75;;;2.05;;
15285;SDS011;7744;52.172;10.668;2023-06-14T05:23:11;2.45;;;2.25;;
15285;SDS011;7744;52.172;10.668;2023-06-14T05:25:41;3.00;;;2.30;;
15285;SDS011;7744;52.172;10.668;2023-06-14T05:28:08;2.72;;;2.20;;
15285;SDS011;7744;52.172;10.668;2023-06-14T05:30:33;3.75;;;2.13;;
15285;SDS011;7744;52.172;10.668;2023-06-14T05:32:59;1.90;;;1.80;;
15285;SDS011;7744;52.172;10.668;2023-06-14T05:35:25;2.50;;;2.20;;
15285;SDS011;7744;52.172;10.668;2023-06-14T05:37:51;2.40;;;2.20;;
15285;SDS011;7744;52.172;10.668;2023-06-14T05:40:19;2.25;;;2.05;;
15285;SDS011;7744;52.172;10.668;2023-06-14T05:42:45;2.67;;;2.10;;
15285;SDS011;7744;52.172;10.668;2023-06-14T05:45:11;3.65;;;2.20;;
15285;SDS011;7744;52.172;10.668;2023-06-14T05:47:36;1.73;;;1.63;;
15285;SDS011;7744;52.172;10.668;2023-06-14T05:50:02;2.05;;;1.95;;
15285;SDS011;7744;52.172;10.668;2023-06-14T05:52:28;3.38;;;2.08;;
15285;SDS011;7744;52.172;10.668;2023-06-14T05:54:54;2.42;;;2.22;;
15285;SDS011;7744;52.172;10.668;2023-06-14T05:57:20;2.42;;;2.15;;
15285;SDS011;7744;52.172;10.668;2023-06-14T05:59:46;3.75;;;2.35;;
15285;SDS011;7744;52.172;10.668;2023-06-14T06:02:11;2.03;;;1.92;;
15285;SDS011;7744;52.172;10.668;2023-06-14T06:04:37;2.40;;;2.00;;
15285;SDS011;7744;52.172;10.668;2023-06-14T06:07:03;3.00;;;2.20;;
15285;SDS011;7744;52.172;10.668;2023-06-14T06:09:29;2.40;;;2.08;;
15285;SDS011;7744;52.172;10.668;2023-06-14T06:11:54;2.38;;;2.17;;
15285;SDS011;7744;52.172;10.668;2023-06-14T06:14:20;2.50;;;2.20;;
15285;SDS011;7744;52.172;10.668;2023-06-14T06:16:45;3.08;;;2.20;;
15285;SDS011;7744;52.172;10.668;2023-06-14T06:19:11;2.53;;;2.10;;
15285;SDS011;7744;52.172;10.668;2023-06-14T06:21:37;2.55;;;1.77;;
15285;SDS011;7744;52.172;10.668;2023-06-14T06:24:02;3.50;;;2.00;;
15285;SDS011;7744;52.172;10.668;2023-06-14T06:26:30;1.85;;;1.75;;
15285;SDS011;7744;52.172;10.668;2023-06-14T06:28:56;2.53;;;2.20;;
15285;SDS011;7744;52.172;10.668;2023-06-14T06:31:23;3.03;;;1.92;;
15285;SDS011;7744;52.172;10.668;2023-06-14T06:36:19;5.78;;;2.08;;
15285;SDS011;7744;52.172;10.668;2023-06-14T06:38:47;3.65;;;2.20;;
15285;SDS011;7744;52.172;10.668;2023-06-14T06:41:13;2.30;;;1.70;;
15285;SDS011;7744;52.172;10.668;2023-06-14T06:43:39;2.35;;;1.90;;
15285;SDS011;7744;52.172;10.668;2023-06-14T06:46:04;1.90;;;1.70;;
15285;SDS011;7744;52.172;10.668;2023-06-14T06:48:33;1.80;;;1.70;;
15285;SDS011;7744;52.172;10.668;2023-06-14T06:51:09;1.92;;;1.83;;
15285;SDS011;7744;52.172;10.668;2023-06-14T06:53:35;3.17;;;1.83;;
15285;SDS011;7744;52.172;10.668;2023-06-14T06:56:02;1.83;;;1.73;;
15285;SDS011;7744;52.172;10.668;2023-06-14T06:58:27;2.08;;;1.73;;
15285;SDS011;7744;52.172;10.668;2023-06-14T07:00:53;1.90;;;1.80;;
15285;SDS011;7744;52.172;10.668;2023-06-14T07:03:18;1.77;;;1.67;;
15285;SDS011;7744;52.172;10.668;2023-06-14T07:05:44;1.90;;;1.80;;
15285;SDS011;7744;52.172;10.668;2023-06-14T07:08:10;3.35;;;1.90;;
15285;SDS011;7744;52.172;10.668;2023-06-14T07:10:36;3.63;;;1.75;;
15285;SDS011;7744;52.172;10.668;2023-06-14T07:13:02;1.92;;;1.80;;
15285;SDS011;7744;52.172;10.668;2023-06-14T07:15:28;1.88;;;1.77;;
15285;SDS011;7744;52.172;10.668;2023-06-14T07:17:54;1.90;;;1.60;;
15285;SDS011;7744;52.172;10.668;2023-06-14T07:20:24;2.03;;;1.80;;
15285;SDS011;7744;52.172;10.668;2023-06-14T07:22:50;2.20;;;2.00;;
15285;SDS011;7744;52.172;10.668;2023-06-14T07:25:16;1.90;;;1.80;;
15285;SDS011;7744;52.172;10.668;2023-06-14T07:27:45;1.70;;;1.60;;
15285;SDS011;7744;52.172;10.668;2023-06-14T07:30:11;4.07;;;1.80;;
15285;SDS011;7744;52.172;10.668;2023-06-14T07:32:36;2.85;;;1.80;;
15285;SDS011;7744;52.172;10.668;2023-06-14T07:35:02;2.58;;;1.67;;
15285;SDS011;7744;52.172;10.668;2023-06-14T07:37:28;1.90;;;1.80;;
15285;SDS011;7744;52.172;10.668;2023-06-14T07:39:54;2.83;;;1.40;;
15285;SDS011;7744;52.172;10.668;2023-06-14T07:42:20;2.42;;;2.15;;
15285;SDS011;7744;52.172;10.668;2023-06-14T07:44:45;2.00;;;1.90;;
15285;SDS011;7744;52.172;10.668;2023-06-14T07:47:11;1.90;;;1.60;;
15285;SDS011;7744;52.172;10.668;2023-06-14T07:49:37;2.67;;;1.55;;
15285;SDS011;7744;52.172;10.668;2023-06-14T07:52:02;3.65;;;1.73;;
15285;SDS011;7744;52.172;10.668;2023-06-14T07:54:29;2.67;;;1.88;;
15285;SDS011;7744;52.172;10.668;2023-06-14T07:56:56;1.77;;;1.67;;
15285;SDS011;7744;52.172;10.668;2023-06-14T07:59:23;2.22;;;1.52;;
15285;SDS011;7744;52.172;10.668;2023-06-14T08:01:49;4.03;;;2.00;;
15285;SDS011;7744;52.172;10.668;2023-06-14T08:04:14;2.10;;;1.90;;
15285;SDS011;7744;52.172;10.668;2023-06-14T08:06:40;2.10;;;1.70;;
15285;SDS011;7744;52.172;10.668;2023-06-14T08:09:09;2.22;;;1.70;;
15285;SDS011;7744;52.172;10.668;2023-06-14T08:11:35;2.38;;;1.88;;
15285;SDS011;7744;52.172;10.668;2023-06-14T08:14:01;3.22;;;2.08;;
15285;SDS011;7744;52.172;10.668;2023-06-14T08:16:27;1.98;;;1.80;;
15285;SDS011;7744;52.172;10.668;2023-06-14T08:18:53;2.47;;;1.77;;
15285;SDS011;7744;52.172;10.668;2023-06-14T08:21:20;2.05;;;1.48;;
15285;SDS011;7744;52.172;10.668;2023-06-14T08:23:46;1.67;;;1.58;;
15285;SDS011;7744;52.172;10.668;2023-06-14T08:26:12;1.52;;;1.42;;
15285;SDS011;7744;52.172;10.668;2023-06-14T08:28:38;1.85;;;1.63;;
15285;SDS011;7744;52.172;10.668;2023-06-14T08:31:03;1.58;;;1.48;;
15285;SDS011;7744;52.172;10.668;2023-06-14T08:33:29;2.15;;;1.30;;
15285;SDS011;7744;52.172;10.668;2023-06-14T08:35:54;1.65;;;1.55;;
15285;SDS011;7744;52.172;10.668;2023-06-14T08:38:20;1.58;;;1.48;;
15285;SDS011;7744;52.172;10.668;2023-06-14T08:40:47;1.40;;;1.30;;
15285;SDS011;7744;52.172;10.668;2023-06-14T08:43:16;1.88;;;1.33;;
15285;SDS011;7744;52.172;10.668;2023-06-14T08:45:42;3.33;;;1.15;;
15285;SDS011;7744;52.172;10.668;2023-06-14T08:48:07;1.63;;;1.40;;
15285;SDS011;7744;52.172;10.668;2023-06-14T08:50:34;2.30;;;1.30;;
15285;SDS011;7744;52.172;10.668;2023-06-14T08:53:02;2.22;;;1.10;;
15285;SDS011;7744;52.172;10.668;2023-06-14T08:55:28;2.03;;;1.23;;
15285;SDS011;7744;52.172;10.668;2023-06-14T08:57:55;1.10;;;1.00;;
15285;SDS011;7744;52.172;10.668;2023-06-14T09:00:25;2.15;;;1.52;;
15285;SDS011;7744;52.172;10.668;2023-06-14T09:02:53;1.25;;;1.15;;
15285;SDS011;7744;52.172;10.668;2023-06-14T09:05:26;2.70;;;1.38;;
15285;SDS011;7744;52.172;10.668;2023-06-14T09:07:52;1.77;;;1.10;;
15285;SDS011;7744;52.172;10.668;2023-06-14T09:30:50;1.42;;;1.33;;
15285;SDS011;7744;52.172;10.668;2023-06-14T09:33:19;2.08;;;1.70;;
15285;SDS011;7744;52.172;10.668;2023-06-14T09:35:45;3.20;;;1.80;;
15285;SDS011;7744;52.172;10.668;2023-06-14T09:38:15;2.10;;;1.75;;
15285;SDS011;7744;52.172;10.668;2023-06-14T09:40:41;2.30;;;2.10;;
15285;SDS011;7744;52.172;10.668;2023-06-14T09:43:07;2.97;;;1.75;;
15285;SDS011;7744;52.172;10.668;2023-06-14T09:45:36;3.10;;;2.00;;
15285;SDS011;7744;52.172;10.668;2023-06-14T09:48:05;2.67;;;2.10;;
15285;SDS011;7744;52.172;10.668;2023-06-14T09:50:32;2.08;;;1.98;;
15285;SDS011;7744;52.172;10.668;2023-06-14T09:53:00;2.70;;;2.35;;
15285;SDS011;7744;52.172;10.668;2023-06-14T09:55:30;2.35;;;2.05;;
15285;SDS011;7744;52.172;10.668;2023-06-14T09:57:59;2.95;;;2.20;;
15285;SDS011;7744;52.172;10.668;2023-06-14T10:00:29;3.03;;;1.95;;
15285;SDS011;7744;52.172;10.668;2023-06-14T10:02:57;4.07;;;2.30;;
15285;SDS011;7744;52.172;10.668;2023-06-14T10:05:28;2.97;;;2.20;;
15285;SDS011;7744;52.172;10.668;2023-06-14T10:08:04;4.47;;;2.53;;
15285;SDS011;7744;52.172;10.668;2023-06-14T10:10:33;4.45;;;1.92;;
15285;SDS011;7744;52.172;10.668;2023-06-14T10:12:58;3.55;;;2.15;;
15285;SDS011;7744;52.172;10.668;2023-06-14T10:15:46;3.78;;;2.33;;
15285;SDS011;7744;52.172;10.668;2023-06-14T10:21:34;6.63;;;2.67;;
15285;SDS011;7744;52.172;10.668;2023-06-14T10:24:08;3.80;;;2.70;;
15285;SDS011;7744;52.172;10.668;2023-06-14T10:26:49;6.28;;;2.70;;
15285;SDS011;7744;52.172;10.668;2023-06-14T10:29:16;6.95;;;2.67;;
15285;SDS011;7744;52.172;10.668;2023-06-14T10:31:46;7.07;;;2.63;;
15285;SDS011;7744;52.172;10.668;2023-06-14T10:34:21;4.65;;;2.60;;
15285;SDS011;7744;52.172;10.668;2023-06-14T10:37:06;5.32;;;2.40;;
15285;SDS011;7744;52.172;10.668;2023-06-14T10:39:40;3.67;;;2.80;;
15285;SDS011;7744;52.172;10.668;2023-06-14T10:42:07;5.55;;;2.88;;
15285;SDS011;7744;52.172;10.668;2023-06-14T10:44:33;3.60;;;2.40;;
15285;SDS011;7744;52.172;10.668;2023-06-14T10:47:31;3.05;;;2.20;;
15285;SDS011;7744;52.172;10.668;2023-06-14T10:50:08;2.95;;;2.15;;
15285;SDS011;7744;52.172;10.668;2023-06-14T10:52:39;3.28;;;2.50;;
15285;SDS011;7744;52.172;10.668;2023-06-14T10:57:43;2.60;;;2.40;;
15285;SDS011;7744;52.172;10.668;2023-06-14T11:00:10;5.40;;;2.50;;
15285;SDS011;7744;52.172;10.668;2023-06-14T11:11:00;2.95;;;2.47;;
15285;SDS011;7744;52.172;10.668;2023-06-14T11:13:26;5.10;;;2.45;;
15285;SDS011;7744;52.172;10.668;2023-06-14T11:15:51;5.28;;;2.60;;
15285;SDS011;7744;52.172;10.668;2023-06-14T11:18:22;3.38;;;2.40;;
15285;SDS011;7744;52.172;10.668;2023-06-14T11:20:52;5.25;;;2.63;;
15285;SDS011;7744;52.172;10.668;2023-06-14T11:23:18;4.30;;;2.58;;
15285;SDS011;7744;52.172;10.668;2023-06-14T11:25:51;3.08;;;2.78;;
15285;SDS011;7744;52.172;10.668;2023-06-14T11:28:17;2.55;;;2.30;;
15285;SDS011;7744;52.172;10.668;2023-06-14T11:30:44;2.72;;;2.50;;
15285;SDS011;7744;52.172;10.668;2023-06-14T11:33:11;3.90;;;2.42;;
15285;SDS011;7744;52.172;10.668;2023-06-14T11:35:42;6.78;;;2.83;;
15285;SDS011;7744;52.172;10.668;2023-06-14T11:38:09;2.78;;;2.58;;
15285;SDS011;7744;52.172;10.668;2023-06-14T11:40:37;3.22;;;2.40;;
15285;SDS011;7744;52.172;10.668;2023-06-14T11:43:03;4.97;;;2.70;;
15285;SDS011;7744;52.172;10.668;2023-06-14T11:45:29;6.65;;;2.60;;
15285;SDS011;7744;52.172;10.668;2023-06-14T11:47:56;3.25;;;2.75;;
15285;SDS011;7744;52.172;10.668;2023-06-14T11:50:23;4.10;;;2.63;;
15285;SDS011;7744;52.172;10.668;2023-06-14T11:52:59;3.97;;;2.63;;
15285;SDS011;7744;52.172;10.668;2023-06-14T11:55:31;5.30;;;2.70;;
15285;SDS011;7744;52.172;10.668;2023-06-14T11:58:09;2.83;;;2.58;;
15285;SDS011;7744;52.172;10.668;2023-06-14T12:00:35;2.80;;;2.60;;
15285;SDS011;7744;52.172;10.668;2023-06-14T12:03:02;4.60;;;2.53;;
15285;SDS011;7744;52.172;10.668;2023-06-14T12:05:28;4.28;;;2.63;;
15285;SDS011;7744;52.172;10.668;2023-06-14T12:07:59;5.07;;;2.60;;
15285;SDS011;7744;52.172;10.668;2023-06-14T12:10:28;5.57;;;2.55;;
15285;SDS011;7744;52.172;10.668;2023-06-14T12:13:00;4.78;;;2.78;;
15285;SDS011;7744;52.172;10.668;2023-06-14T12:15:28;5.88;;;2.63;;
15285;SDS011;7744;52.172;10.668;2023-06-14T12:17:55;5.18;;;2.70;;
15285;SDS011;7744;52.172;10.668;2023-06-14T12:20:22;2.95;;;2.67;;
15285;SDS011;7744;52.172;10.668;2023-06-14T12:22:58;4.43;;;2.92;;
15285;SDS011;7744;52.172;10.668;2023-06-14T12:25:26;2.90;;;2.50;;
15285;SDS011;7744;52.172;10.668;2023-06-14T12:27:54;4.15;;;2.35;;
15285;SDS011;7744;52.172;10.668;2023-06-14T12:30:20;5.00;;;2.83;;
15285;SDS011;7744;52.172;10.668;2023-06-14T12:32:46;3.90;;;2.90;;
15285;SDS011;7744;52.172;10.668;2023-06-14T12:35:11;4.03;;;2.58;;
15285;SDS011;7744;52.172;10.668;2023-06-14T12:37:37;5.28;;;2.58;;
15285;SDS011;7744;52.172;10.668;2023-06-14T12:40:03;2.80;;;2.22;;
15285;SDS011;7744;52.172;10.668;2023-06-14T12:42:30;3.05;;;2.55;;
15285;SDS011;7744;52.172;10.668;2023-06-14T12:44:56;4.95;;;2.95;;
15285;SDS011;7744;52.172;10.668;2023-06-14T12:47:22;3.63;;;2.67;;
15285;SDS011;7744;52.172;10.668;2023-06-14T12:49:47;4.07;;;2.63;;
15285;SDS011;7744;52.172;10.668;2023-06-14T12:52:13;4.07;;;2.67;;
15285;SDS011;7744;52.172;10.668;2023-06-14T12:54:38;6.50;;;2.85;;
15285;SDS011;7744;52.172;10.668;2023-06-14T12:57:05;5.72;;;2.65;;
15285;SDS011;7744;52.172;10.668;2023-06-14T12:59:31;6.25;;;2.70;;
15285;SDS011;7744;52.172;10.668;2023-06-14T13:01:59;5.05;;;2.95;;
15285;SDS011;7744;52.172;10.668;2023-06-14T13:04:35;3.85;;;2.70;;
15285;SDS011;7744;52.172;10.668;2023-06-14T13:07:01;3.42;;;2.60;;
15285;SDS011;7744;52.172;10.668;2023-06-14T13:09:27;5.28;;;2.60;;
15285;SDS011;7744;52.172;10.668;2023-06-14T13:11:52;3.33;;;2.80;;
15285;SDS011;7744;52.172;10.668;2023-06-14T13:14:18;4.82;;;2.83;;
15285;SDS011;7744;52.172;10.668;2023-06-14T13:16:44;4.60;;;2.70;;
15285;SDS011;7744;52.172;10.668;2023-06-14T13:19:09;10.95;;;3.72;;
15285;SDS011;7744;52.172;10.668;2023-06-14T13:21:35;5.95;;;3.10;;
15285;SDS011;7744;52.172;10.668;2023-06-14T13:24:00;4.28;;;2.72;;
15285;SDS011;7744;52.172;10.668;2023-06-14T13:26:26;6.75;;;3.00;;
15285;SDS011;7744;52.172;10.668;2023-06-14T13:28:52;4.38;;;2.85;;
15285;SDS011;7744;52.172;10.668;2023-06-14T13:31:17;3.70;;;2.38;;
15285;SDS011;7744;52.172;10.668;2023-06-14T13:33:43;2.50;;;2.30;;
15285;SDS011;7744;52.172;10.668;2023-06-14T13:36:08;4.40;;;2.40;;
15285;SDS011;7744;52.172;10.668;2023-06-14T13:38:35;22.98;;;4.28;;
15285;SDS011;7744;52.172;10.668;2023-06-14T13:41:00;7.50;;;2.95;;
15285;SDS011;7744;52.172;10.668;2023-06-14T13:43:26;11.85;;;3.13;;
15285;SDS011;7744;52.172;10.668;2023-06-14T13:45:51;5.28;;;2.90;;
15285;SDS011;7744;52.172;10.668;2023-06-14T13:48:17;8.55;;;2.60;;
15285;SDS011;7744;52.172;10.668;2023-06-14T13:57:27;8.07;;;2.88;;
15285;SDS011;7744;52.172;10.668;2023-06-14T13:59:53;12.57;;;2.75;;
15285;SDS011;7744;52.172;10.668;2023-06-14T14:02:20;5.32;;;2.60;;
15285;SDS011;7744;52.172;10.668;2023-06-14T14:04:46;5.05;;;2.72;;
15285;SDS011;7744;52.172;10.668;2023-06-14T14:07:17;3.40;;;2.35;;
15285;SDS011;7744;52.172;10.668;2023-06-14T14:09:44;7.30;;;3.15;;
15285;SDS011;7744;52.172;10.668;2023-06-14T14:12:09;4.65;;;2.88;;
15285;SDS011;7744;52.172;10.668;2023-06-14T14:14:36;6.00;;;2.50;;
15285;SDS011;7744;52.172;10.668;2023-06-14T14:17:02;4.30;;;2.92;;
15285;SDS011;7744;52.172;10.668;2023-06-14T14:19:27;6.07;;;2.90;;
15285;SDS011;7744;52.172;10.668;2023-06-14T14:21:53;5.38;;;3.00;;
15285;SDS011;7744;52.172;10.668;2023-06-14T14:24:19;5.55;;;2.97;;
15285;SDS011;7744;52.172;10.668;2023-06-14T14:26:45;5.07;;;2.95;;
15285;SDS011;7744;52.172;10.668;2023-06-14T14:29:13;5.25;;;2.83;;
15285;SDS011;7744;52.172;10.668;2023-06-14T14:31:39;6.80;;;3.30;;
15285;SDS011;7744;52.172;10.668;2023-06-14T14:34:05;5.70;;;2.38;;
15285;SDS011;7744;52.172;10.668;2023-06-14T14:36:31;4.47;;;2.92;;
15285;SDS011;7744;52.172;10.668;2023-06-14T14:38:58;3.95;;;2.75;;
15285;SDS011;7744;52.172;10.668;2023-06-14T14:41:24;4.57;;;3.30;;
15285;SDS011;7744;52.172;10.668;2023-06-14T14:43:49;2.88;;;2.63;;
15285;SDS011;7744;52.172;10.668;2023-06-14T14:46:15;5.90;;;2.88;;
15285;SDS011;7744;52.172;10.668;2023-06-14T14:48:41;5.50;;;2.97;;
15285;SDS011;7744;52.172;10.668;2023-06-14T14:51:07;5.38;;;2.90;;
15285;SDS011;7744;52.172;10.668;2023-06-14T14:53:33;4.00;;;2.95;;
15285;SDS011;7744;52.172;10.668;2023-06-14T14:55:58;4.28;;;2.58;;
15285;SDS011;7744;52.172;10.668;2023-06-14T14:58:25;4.82;;;2.88;;
15285;SDS011;7744;52.172;10.668;2023-06-14T15:00:50;4.07;;;2.75;;
15285;SDS011;7744;52.172;10.668;2023-06-14T15:03:16;4.93;;;2.53;;
15285;SDS011;7744;52.172;10.668;2023-06-14T15:05:42;4.40;;;2.78;;
15285;SDS011;7744;52.172;10.668;2023-06-14T15:08:07;3.35;;;2.80;;
15285;SDS011;7744;52.172;10.668;2023-06-14T15:10:37;5.00;;;2.85;;
15285;SDS011;7744;52.172;10.668;2023-06-14T15:13:10;4.38;;;2.63;;
15285;SDS011;7744;52.172;10.668;2023-06-14T15:15:36;4.72;;;3.08;;
15285;SDS011;7744;52.172;10.668;2023-06-14T15:18:02;5.97;;;2.95;;
15285;SDS011;7744;52.172;10.668;2023-06-14T15:20:28;4.68;;;2.63;;
15285;SDS011;7744;52.172;10.668;2023-06-14T15:22:54;3.50;;;2.78;;
15285;SDS011;7744;52.172;10.668;2023-06-14T15:25:24;3.63;;;3.10;;
15285;SDS011;7744;52.172;10.668;2023-06-14T15:27:54;4.05;;;2.88;;
15285;SDS011;7744;52.172;10.668;2023-06-14T15:30:20;4.30;;;2.80;;
15285;SDS011;7744;52.172;10.668;2023-06-14T15:32:46;6.20;;;2.58;;
15285;SDS011;7744;52.172;10.668;2023-06-14T15:35:12;3.58;;;2.75;;